Data for 08/04/2015

Time Sea-Level Adjusted Pressure Absolute Pressure Temperature Relative Humidity Dew Point   
(mb) (inHg) (mb) (inHg) (C) (F) (%) (C) (F)
00:05 1018 30.06 847 25.01 20.2 68.3 47 8.8 47.8
00:10 1018 30.06 847 25.01 20.1 68.1 48 8.8 47.8
00:15 1018 30.06 847 25.01 19.9 67.9 50 9.3 48.7
00:20 1018 30.06 847 25.01 19.6 67.3 51 9.2 48.6
00:25 1018 30.06 847 25.01 19.4 66.9 51 9 48.2
00:30 1018 30.06 847 25.01 19.3 66.7 52 9.3 48.7
00:35 1018 30.06 847 25.01 19.3 66.7 52 9.2 48.5
00:40 1018 30.06 847 25.01 19 66.1 54 9.6 49.3
00:45 1018 30.06 847 25.01 18.7 65.7 57 10.2 50.3
00:50 1018 30.06 847 25.01 18.6 65.4 54 9.2 48.6
00:55 1018 30.06 847 25.01 18.6 65.5 51 8.5 47.3
01:00 1018 30.06 847 25.01 18.5 65.4 54 9.2 48.6
01:05 1018 30.06 847 25.01 18.4 65.2 53 8.8 47.8
01:10 1018 30.06 847 25.01 18.4 65.2 53 8.9 47.9
01:15 1018 30.06 847 25.01 18.4 65.1 52 8.5 47.3
01:20 1018 30.06 847 25.01 18.3 65 53 8.8 47.8
01:25 1018 30.06 847 25.01 18.4 65 53 8.6 47.5
01:30 1018 30.06 847 25.01 18.6 65.5 50 8 46.4
01:35 1018 30.06 847 25.01 18.6 65.4 51 8.3 46.9
01:40 1018 30.06 847 25.01 18.5 65.3 51 8.4 47.2
01:45 1018 30.06 847 25.01 18.5 65.4 50 8 46.5
01:50 1018 30.06 847 25.01 18.7 65.7 51 8.6 47.5
01:55 1018 30.06 847 25.01 18.9 66 50 8.3 46.9
02:00 1018 30.06 847 25.01 19 66.2 51 8.8 47.8
02:05 1018 30.06 847 25.01 18.9 65.9 52 8.9 48
02:10 1018 30.06 847 25.01 18.6 65.5 53 8.8 47.9
02:15 1018 30.06 847 25.01 18.6 65.5 56 9.6 49.4
02:20 1018 30.06 847 25.01 18.4 65.1 57 9.8 49.6
02:25 1018 30.06 847 25.01 17.6 63.8 59 9.6 49.3
02:30 1018 30.06 847 25.01 17.5 63.4 59 9.4 49
02:35 1018 30.06 847 25.01 17.4 63.4 61 10 50
02:40 1018 30.06 847 25.01 17.4 63.4 58 9.2 48.6
02:45 1018 30.06 847 25.01 17.8 64 57 9.2 48.5
02:50 1018 30.06 847 25.01 17.9 64.2 56 9.2 48.5
02:55 1018 30.06 847 25.01 17.9 64.3 57 9.5 49.1
03:00 1018 30.06 847 25.01 17.8 64 57 9.3 48.8
03:05 1018 30.06 848 25.04 17.8 64 55 8.7 47.7
03:10 1018 30.06 848 25.04 18.4 65.1 50 8 46.4
03:15 1018 30.06 848 25.04 18.8 65.8 51 8.5 47.3
03:20 1018 30.06 848 25.04 19 66.1 50 8.6 47.4
03:25 1018 30.06 848 25.04 18.9 66.1 52 9 48.3
03:30 1018 30.06 848 25.04 18.7 65.7 53 9 48.2
03:35 1018 30.06 848 25.04 18.6 65.5 53 9 48.2
03:40 1018 30.06 848 25.04 18.6 65.5 52 8.7 47.7
03:45 1018 30.06 847 25.01 18.7 65.7 52 8.8 47.9
03:50 1018 30.06 847 25.01 18.7 65.7 54 9.2 48.6
03:55 1018 30.06 847 25.01 18.7 65.6 53 9 48.2
04:00 1018 30.06 848 25.04 18.7 65.6 53 9 48.3
04:05 1018 30.06 848 25.04 18.6 65.5 55 9.6 49.4
04:10 1018 30.06 848 25.04 18.2 64.8 56 9.5 49
04:15 1019 30.09 848 25.04 18.1 64.5 57 9.6 49.3
04:20 1019 30.09 848 25.04 17.7 63.9 59 9.8 49.6
04:25 1019 30.09 848 25.04 17.4 63.3 62 10.2 50.3
04:30 1019 30.09 848 25.04 17.3 63.1 61 9.7 49.5
04:35 1019 30.09 848 25.04 17.2 62.9 61 9.6 49.3
04:40 1019 30.09 848 25.04 17.1 62.8 61 9.7 49.5
04:45 1019 30.09 848 25.04 17.1 62.7 61 9.6 49.3
04:50 1019 30.09 848 25.04 17.3 63.1 59 9.3 48.7
04:55 1019 30.09 848 25.04 17.5 63.6 60 9.7 49.5
05:00 1019 30.09 848 25.04 17.4 63.3 59 9.4 48.9
05:05 1019 30.09 848 25.04 17.5 63.5 60 9.7 49.4
05:10 1019 30.09 848 25.04 17.5 63.5 59 9.5 49.1
05:15 1019 30.09 848 25.04 17.4 63.2 61 9.8 49.6
05:20 1019 30.09 848 25.04 17.1 62.7 62 9.8 49.7
05:25 1019 30.09 848 25.04 17.1 62.7 62 9.8 49.7
05:30 1019 30.09 848 25.04 17 62.7 62 9.8 49.6
05:35 1019 30.09 848 25.04 16.9 62.4 64 10 50.1
05:40 1019 30.09 848 25.04 16.8 62.2 66 10.4 50.7
05:45 1019 30.09 848 25.04 16.7 62.1 64 9.9 49.9
05:50 1019 30.09 848 25.04 16.7 62.1 62 9.5 49.2
05:55 1019 30.09 848 25.04 17.1 62.7 59 9.1 48.4
06:00 1019 30.09 848 25.04 17.3 63.1 58 9.1 48.4
06:05 1019 30.09 848 25.04 17.3 63.2 59 9.3 48.7
06:10 1019 30.09 848 25.04 17.2 63 59 9.3 48.7
06:15 1019 30.09 848 25.04 17.2 63 59 9.2 48.6
06:20 1019 30.09 848 25.04 17.2 63 59 9.2 48.5
06:25 1019 30.09 848 25.04 17.2 63 59 9.2 48.6
06:30 1019 30.09 848 25.04 17.2 63 58 9.1 48.4
06:35 1019 30.09 848 25.04 17.4 63.2 60 9.7 49.4
06:40 1019 30.09 848 25.04 17.4 63.4 60 9.8 49.6
06:45 1019 30.09 848 25.04 17.5 63.6 60 9.8 49.7
06:50 1019 30.09 848 25.04 17.7 63.8 59 9.7 49.4
06:55 1019 30.09 848 25.04 17.9 64.1 57 9.4 49
07:00 1019 30.09 848 25.04 18 64.5 57 9.4 48.9
07:05 1019 30.09 848 25.04 18 64.4 59 9.9 49.8
07:10 1019 30.09 848 25.04 18 64.4 59 10.1 50.2
07:15 1019 30.09 848 25.04 18 64.3 60 10.1 50.2
07:20 1019 30.09 848 25.04 17.8 64.1 58 9.7 49.4
07:25 1019 30.09 848 25.04 18.2 64.7 58 9.8 49.6
07:30 1019 30.09 848 25.04 18.6 65.4 59 10.4 50.7
07:35 1019 30.09 848 25.04 19 66.2 56 10.2 50.4
07:40 1019 30.09 848 25.04 19.6 67.3 54 10.3 50.5
07:45 1019 30.09 848 25.04 19.9 67.9 53 10.1 50.2
07:50 1019 30.09 848 25.04 19.7 67.5 54 10.4 50.7
07:55 1019 30.09 848 25.04 19.4 66.9 56 10.5 50.8
08:00 1019 30.09 848 25.04 19.4 66.8 58 11 51.9
08:05 1019 30.09 848 25.04 19.1 66.4 58 10.9 51.6
08:10 1019 30.09 848 25.04 19.2 66.6 56 10.4 50.8
08:15 1019 30.09 848 25.04 19.4 67 55 10.2 50.4
08:20 1019 30.09 848 25.04 19.8 67.6 56 10.8 51.5
08:25 1019 30.09 848 25.04 20 68 55 10.7 51.3
08:30 1019 30.09 848 25.04 20.2 68.4 55 11 51.7
08:35 1019 30.09 848 25.04 20.7 69.3 53 11 51.8
08:40 1019 30.09 848 25.04 21.3 70.3 47 9.6 49.3
08:45 1019 30.09 848 25.04 21.4 70.4 47 9.8 49.7
08:50 1019 30.09 848 25.04 21.1 70 51 10.7 51.2
08:55 1019 30.09 848 25.04 21.2 70.2 49 10.3 50.6
09:00 1019 30.09 848 25.04 21.3 70.3 49 10.3 50.5
09:05 1019 30.09 848 25.04 21.5 70.7 48 10.2 50.3
09:10 1019 30.09 848 25.04 21.9 71.3 47 10.2 50.4
09:15 1019 30.09 848 25.04 22 71.6 45 9.7 49.5
09:20 1019 30.09 848 25.04 22.3 72.1 43 9.3 48.7
09:25 1019 30.09 848 25.04 22.4 72.3 44 9.7 49.5
09:30 1019 30.09 848 25.04 22.4 72.3 45 10.2 50.3
09:35 1019 30.09 848 25.04 22.1 71.9 47 10.3 50.6
09:40 1019 30.09 848 25.04 22 71.7 45 9.8 49.7
09:45 1019 30.09 848 25.04 21.6 70.9 48 10.3 50.6
09:50 1019 30.09 848 25.04 21.9 71.5 49 10.8 51.5
09:55 1019 30.09 848 25.04 22.4 72.4 44 9.9 49.8
10:00 1019 30.09 848 25.04 22.8 73.1 45 10.4 50.7
10:05 1019 30.09 848 25.04 23.1 73.5 42 9.6 49.3
10:10 1019 30.09 848 25.04 23.1 73.6 42 9.8 49.6
10:15 1019 30.09 848 25.04 23.2 73.8 42 9.8 49.7
10:20 1019 30.09 849 25.07 23.4 74.2 38 8.4 47.2
10:25 1019 30.09 849 25.07 24.1 75.4 38 9.3 48.7
10:30 1019 30.09 849 25.07 24.3 75.7 36 8.6 47.4
10:35 1019 30.09 849 25.07 23.5 74.4 35 7.6 45.6
10:40 1019 30.09 849 25.07 24 75.3 35 7.8 46
10:45 1019 30.09 848 25.04 23.6 74.5 35 7.3 45.2
10:50 1019 30.09 848 25.04 24.7 76.4 32 7.3 45.1
10:55 1019 30.09 848 25.04 25.2 77.3 32 7.6 45.7
11:00 1019 30.09 848 25.04 25.2 77.3 31 7.1 44.8
11:05 1019 30.09 848 25.04 24.8 76.6 32 7 44.6
11:10 1019 30.09 848 25.04 25.1 77.2 32 7.3 45.2
11:15 1019 30.09 848 25.04 25 77 31 7.1 44.8
11:20 1019 30.09 848 25.04 25.1 77.2 31 7 44.6
11:25 1019 30.09 848 25.04 26.1 79 28 6.7 44
11:30 1019 30.09 848 25.04 25.5 77.9 30 6.8 44.2
11:35 1019 30.09 848 25.04 25.4 77.7 29 6.4 43.5
11:40 1019 30.09 848 25.04 25.3 77.6 30 7 44.6
11:45 1019 30.09 848 25.04 25.1 77.3 31 6.9 44.4
11:50 1019 30.09 848 25.04 25.3 77.6 30 6.6 43.8
11:55 1019 30.09 848 25.04 25.4 77.7 28 5.6 42.1
12:00 1019 30.09 848 25.04 25.7 78.3 28 6.1 43
12:05 1018 30.06 848 25.04 25.8 78.4 28 6.2 43.2
12:10 1018 30.06 848 25.04 26.1 79 26 5.1 41.2
12:15 1018 30.06 847 25.01 26.9 80.4 25 5.6 42.1
12:20 1018 30.06 847 25.01 25.9 78.7 27 5.5 41.9
12:25 1018 30.06 847 25.01 25.4 77.8 27 5.4 41.7
12:30 1018 30.06 847 25.01 26.4 79.4 25 5 41.1
12:35 1018 30.06 847 25.01 27.1 80.9 25 5.8 42.4
12:40 1018 30.06 847 25.01 27.6 81.6 24 5.3 41.5
12:45 1018 30.06 847 25.01 26.4 79.5 27 6.2 43.1
12:50 1018 30.06 847 25.01 25.9 78.7 28 6.3 43.4
12:55 1018 30.06 847 25.01 25.7 78.3 27 5.6 42.1
13:00 1018 30.06 847 25.01 25.6 78.1 28 6.2 43.2
13:05 1018 30.06 847 25.01 25.6 78.1 27 5.7 42.3
13:10 1018 30.06 847 25.01 25.7 78.3 27 5.8 42.5
13:15 1018 30.06 848 25.04 25.9 78.5 28 6.4 43.4
13:20 1018 30.06 847 25.01 25.6 78.1 30 6.8 44.2
13:25 1018 30.06 847 25.01 24.9 76.8 31 6.9 44.4
13:30 1018 30.06 847 25.01 24.1 75.5 36 8.2 46.7
13:35 1018 30.06 847 25.01 22.9 73.1 36 7.3 45.1
13:40 1018 30.06 847 25.01 22.8 73.1 35 6.6 43.9
13:45 1018 30.06 847 25.01 22.3 72.1 44 9.5 49.1
13:50 1018 30.06 847 25.01 21.8 71.2 43 8.9 48
13:55 1018 30.06 847 25.01 22 71.6 43 9 48.1
14:00 1018 30.06 847 25.01 22.5 72.5 38 7.5 45.5
14:05 1018 30.06 847 25.01 23 73.4 38 8.1 46.5
14:10 1018 30.06 847 25.01 23.7 74.6 41 9.8 49.6
14:15 1018 30.06 847 25.01 23.2 73.8 38 8.5 47.3
14:20 1018 30.06 848 25.04 23.8 74.8 43 10.5 50.9
14:25 1018 30.06 848 25.04 23.4 74.1 38 8.5 47.3
14:30 1019 30.09 848 25.04 23.9 74.9 33 7 44.7
14:35 1019 30.09 848 25.04 24.4 76 35 8.3 46.9
14:40 1019 30.09 848 25.04 24.4 75.9 31 6.5 43.7
14:45 1019 30.09 848 25.04 24.4 76 32 6.8 44.2
14:50 1019 30.09 848 25.04 24.6 76.4 31 6.5 43.8
14:55 1018 30.06 848 25.04 25 76.9 31 6.8 44.2
15:00 1018 30.06 847 25.01 23.9 75.1 32 6.4 43.6
15:05 1018 30.06 847 25.01 23.4 74.2 31 5.6 42.1
15:10 1018 30.06 847 25.01 23.4 74.1 32 6.1 43
15:15 1018 30.06 847 25.01 23.5 74.3 32 6 42.8
15:20 1018 30.06 847 25.01 23.8 74.8 32 6.1 43.1
15:25 1018 30.06 847 25.01 23.9 74.9 32 6.2 43.2
15:30 1018 30.06 847 25.01 23.8 74.9 32 6.4 43.5
15:35 1018 30.06 847 25.01 23.9 75 32 6.4 43.5
15:40 1018 30.06 847 25.01 24.6 76.2 29 5.8 42.5
15:45 1018 30.06 847 25.01 24.5 76.1 28 5.2 41.3
15:50 1018 30.06 848 25.04 24.8 76.7 28 5.6 42
15:55 1018 30.06 848 25.04 25.1 77.1 29 6 42.8
16:00 1018 30.06 848 25.04 24.6 76.4 29 5.6 42
16:05 1019 30.09 848 25.04 24 75.1 30 5.5 41.9
16:10 1019 30.09 848 25.04 23.7 74.6 31 5.7 42.2
16:15 1019 30.09 848 25.04 23.5 74.3 31 5.4 41.8
16:20 1019 30.09 848 25.04 23.9 75.1 30 5.6 42.1
16:25 1019 30.09 848 25.04 24.1 75.4 31 6 42.8
16:30 1019 30.09 848 25.04 24.1 75.4 30 5.7 42.3
16:35 1019 30.09 848 25.04 23.6 74.5 30 5.5 41.8
16:40 1019 30.09 848 25.04 22.7 72.8 32 5.3 41.6
16:45 1019 30.09 848 25.04 22.3 72.1 33 5.5 41.9
16:50 1019 30.09 848 25.04 22.5 72.6 33 5.7 42.3
16:55 1019 30.09 848 25.04 22.6 72.7 34 6.1 43
17:00 1019 30.09 848 25.04 22.5 72.4 33 5.4 41.7
17:05 1019 30.09 848 25.04 22.7 72.8 32 5.4 41.7
17:10 1019 30.09 848 25.04 22.9 73.1 31 5.3 41.5
17:15 1019 30.09 848 25.04 23 73.4 35 7 44.6
17:20 1019 30.09 848 25.04 22.8 73 41 9.1 48.5
17:25 1019 30.09 848 25.04 22.9 73.2 39 8.6 47.4
17:30 1019 30.09 848 25.04 22.8 73 42 9.4 48.9
17:35 1019 30.09 848 25.04 22.8 73 43 9.8 49.6
17:40 1019 30.09 848 25.04 22.7 72.9 44 10 50
17:45 1019 30.09 848 25.04 22.2 72 45 10 50.1
17:50 1019 30.09 848 25.04 22 71.5 45 9.8 49.6
17:55 1019 30.09 848 25.04 22 71.5 45 9.8 49.6
18:00 1019 30.09 848 25.04 21.6 70.8 47 9.8 49.7
18:05 1019 30.09 848 25.04 21.3 70.3 47 9.5 49.1
18:10 1019 30.09 848 25.04 21.3 70.3 47 9.6 49.2
18:15 1019 30.09 848 25.04 21.3 70.3 46 9.4 48.9
18:20 1018 30.06 848 25.04 21.3 70.3 47 9.5 49.2
18:25 1018 30.06 848 25.04 21.2 70.1 48 9.8 49.6
18:30 1018 30.06 848 25.04 21.1 70.1 48 9.8 49.7
18:35 1018 30.06 848 25.04 21.1 70 47 9.6 49.3
18:40 1018 30.06 848 25.04 21 69.8 48 9.6 49.3
18:45 1018 30.06 848 25.04 20.9 69.7 48 9.6 49.3
18:50 1018 30.06 848 25.04 20.9 69.5 48 9.7 49.5
18:55 1018 30.06 848 25.04 20.7 69.3 48 9.6 49.3
19:00 1018 30.06 848 25.04 20.6 69.1 49 9.6 49.3
19:05 1018 30.06 848 25.04 20.5 68.9 49 9.6 49.2
19:10 1018 30.06 848 25.04 20.4 68.8 49 9.4 48.9
19:15 1018 30.06 848 25.04 20.4 68.7 48 9.3 48.7
19:20 1018 30.06 848 25.04 20.4 68.7 49 9.3 48.8
19:25 1018 30.06 848 25.04 20.3 68.5 49 9.4 48.9
19:30 1018 30.06 848 25.04 20.1 68.2 50 9.4 48.9
19:35 1018 30.06 848 25.04 20 68 50 9.3 48.7
19:40 1018 30.06 848 25.04 19.9 67.9 49 9.2 48.5
19:45 1018 30.06 848 25.04 19.8 67.6 50 9.2 48.6
19:50 1019 30.09 848 25.04 19.7 67.4 50 9.1 48.4
19:55 1019 30.09 848 25.04 19.6 67.3 51 9.2 48.6
20:00 1019 30.09 848 25.04 19.6 67.2 51 9.3 48.8
20:05 1019 30.09 848 25.04 19.5 67.1 51 9.3 48.7
20:10 1019 30.09 848 25.04 19.5 67.1 52 9.4 48.9
20:15 1019 30.09 848 25.04 19.4 66.9 52 9.5 49.2
20:20 1019 30.09 848 25.04 19.4 66.9 52 9.6 49.2
20:25 1019 30.09 848 25.04 19.4 67 53 9.7 49.5
20:30 1019 30.09 848 25.04 19.5 67 52 9.6 49.3
20:35 1019 30.09 849 25.07 19.5 67 53 9.8 49.7
20:40 1020 30.12 849 25.07 19.4 67 52 9.4 49
20:45 1020 30.12 849 25.07 19.4 66.9 54 10 50
20:50 1019 30.09 849 25.07 19.1 66.4 54 9.6 49.4
20:55 1019 30.09 849 25.07 19 66.2 54 9.6 49.3
21:00 1019 30.09 849 25.07 19 66.1 55 9.8 49.7
21:05 1020 30.12 849 25.07 18.8 65.8 57 10.1 50.1
21:10 1020 30.12 849 25.07 18.4 65.2 58 10.1 50.2
21:15 1020 30.12 849 25.07 18.2 64.7 59 10.1 50.1
21:20 1020 30.12 849 25.07 18.1 64.6 59 10 50
21:25 1020 30.12 849 25.07 18 64.4 59 10 49.9
21:30 1020 30.12 849 25.07 18 64.4 59 9.9 49.7
21:35 1020 30.12 849 25.07 18.1 64.5 58 9.7 49.4
21:40 1020 30.12 849 25.07 18.1 64.6 57 9.6 49.3
21:45 1020 30.12 849 25.07 18.1 64.6 58 9.9 49.8
21:50 1020 30.12 849 25.07 18.1 64.6 59 10 49.9
21:55 1021 30.15 850 25.1 18.3 65 59 10.3 50.5
22:00 1020 30.12 849 25.07 18.1 64.6 65 11.4 52.6
22:05 1020 30.12 849 25.07 17.6 63.6 70 12.1 53.8
22:10 1019 30.09 848 25.04 16.4 61.6 72 11.4 52.5
22:15 1020 30.12 849 25.07 16.3 61.4 70 10.9 51.7
22:20 1020 30.12 849 25.07 16.6 61.8 71 11.3 52.4
22:25 1020 30.12 849 25.07 16.3 61.4 71 11.2 52.1
22:30 1020 30.12 849 25.07 16.2 61.2 70 10.8 51.4
22:35 1020 30.12 849 25.07 16.3 61.3 71 11.1 52.1
22:40 1020 30.12 849 25.07 16.1 61 74 11.5 52.7
22:45 1019 30.09 849 25.07 15.7 60.3 74 11.1 51.9
22:50 1019 30.09 849 25.07 15.4 59.7 74 10.8 51.4
22:55 1019 30.09 848 25.04 15.5 59.8 70 10 50
23:00 1019 30.09 848 25.04 15.7 60.3 70 10.4 50.7
23:05 1019 30.09 848 25.04 15.7 60.2 69 10.2 50.3
23:10 1019 30.09 848 25.04 15.5 59.9 71 10.3 50.6
23:15 1019 30.09 849 25.07 15.3 59.5 71 10.2 50.3
23:20 1019 30.09 849 25.07 15.3 59.5 71 10.1 50.1
23:25 1019 30.09 849 25.07 15.5 59.9 67 9.5 49
23:30 1019 30.09 849 25.07 15.9 60.5 65 9.4 49
23:35 1020 30.12 849 25.07 15.8 60.5 72 10.9 51.6
23:40 1020 30.12 849 25.07 15.3 59.6 73 10.5 50.9
23:45 1020 30.12 849 25.07 15.4 59.6 69 9.7 49.4
23:50 1020 30.12 849 25.07 15.5 59.8 70 10 50
23:55 1020 30.12 849 25.07 15.3 59.5 71 10.1 50.2
24:00 1020 30.12 849 25.07 15.3 59.5 70 9.9 49.9